Time;durP1;ratioP1;P1;durP2;ratioP2;P2;SDS_P1;SDS_P2;PMS_P1;PMS_P2;Temp;Humidity;BMP_temperature;BMP_pressure;BME280_temperature;BME280_humidity;BME280_pressure;Samples;Min_cycle;Max_cycle;Signal;HPM_P1;HPM_P2
2022/08/15 00:01:02;;;;;;;4.47;2.30;;;25.70;78.50;;;;;;5052574;28;20027;-25
2022/08/15 00:03:35;;;;;;;3.28;1.92;;;25.70;78.50;;;;;;5052832;28;20385;-25
2022/08/15 00:06:06;;;;;;;3.22;1.90;;;25.70;78.40;;;;;;5052769;28;20047;-25
2022/08/15 00:08:35;;;;;;;4.72;1.92;;;25.70;78.20;;;;;;5052445;28;20486;-26
2022/08/15 00:11:12;;;;;;;4.00;2.20;;;25.60;78.30;;;;;;5052509;28;20024;-26
2022/08/15 00:13:39;;;;;;;5.07;2.00;;;25.60;78.30;;;;;;5052247;28;20068;-25
2022/08/15 00:16:06;;;;;;;3.90;2.03;;;25.60;78.20;;;;;;5052502;28;20047;-25
2022/08/15 00:18:33;;;;;;;3.38;1.95;;;25.60;78.30;;;;;;5052493;28;20473;-25
2022/08/15 00:20:59;;;;;;;3.75;2.25;;;25.60;78.60;;;;;;5052468;28;20059;-26
2022/08/15 00:23:26;;;;;;;5.43;1.95;;;25.60;79.10;;;;;;5052515;28;20096;-25
2022/08/15 00:25:54;;;;;;;9.25;2.42;;;25.60;79.40;;;;;;5052298;28;20017;-25
2022/08/15 00:28:20;;;;;;;6.50;2.25;;;25.60;79.60;;;;;;5052101;28;20108;-26
2022/08/15 00:30:47;;;;;;;5.13;2.03;;;25.60;79.70;;;;;;5052035;28;20136;-26
2022/08/15 00:33:14;;;;;;;4.03;2.25;;;25.70;79.80;;;;;;5052055;28;20092;-26
2022/08/15 00:35:41;;;;;;;4.32;2.03;;;25.70;79.80;;;;;;5052084;28;20120;-25
2022/08/15 00:38:13;;;;;;;4.43;2.00;;;25.70;79.70;;;;;;5052091;28;20470;-26
2022/08/15 00:43:40;;;;;;;3.22;2.00;;;25.70;79.70;;;;;;5052315;28;20036;-26
2022/08/15 00:46:09;;;;;;;6.05;2.42;;;25.70;79.80;;;;;;5052380;28;20096;-25
2022/08/15 00:48:43;;;;;;;5.68;2.33;;;25.70;79.70;;;;;;5051786;28;20507;-25
2022/08/15 00:51:17;;;;;;;6.30;2.42;;;25.70;79.50;;;;;;5051758;28;20033;-25
2022/08/15 00:53:48;;;;;;;4.03;2.10;;;25.70;79.50;;;;;;5050569;28;20056;-25
2022/08/15 00:56:15;;;;;;;5.68;2.28;;;25.70;79.70;;;;;;5051824;28;20104;-25
2022/08/15 00:58:43;;;;;;;4.70;2.10;;;25.70;79.70;;;;;;5051492;28;20083;-25
2022/08/15 01:01:12;;;;;;;4.82;1.95;;;25.70;79.80;;;;;;5051036;28;20021;-25
2022/08/15 01:03:42;;;;;;;4.18;2.50;;;25.70;79.80;;;;;;5051515;28;20021;-25
2022/08/15 01:06:08;;;;;;;5.55;2.33;;;25.70;79.80;;;;;;5051637;28;20017;-25
2022/08/15 01:08:38;;;;;;;4.65;2.25;;;25.70;79.80;;;;;;5051492;28;20068;-25
2022/08/15 01:11:27;;;;;;;6.78;2.53;;;25.70;79.60;;;;;;5051878;28;20382;-26
2022/08/15 01:13:56;;;;;;;4.15;2.13;;;25.70;79.80;;;;;;5050061;28;20033;-26
2022/08/15 01:16:24;;;;;;;6.40;2.42;;;25.70;80.00;;;;;;5051520;28;20053;-25
2022/08/15 01:18:51;;;;;;;6.13;2.22;;;25.60;80.00;;;;;;5051275;28;20071;-25
2022/08/15 01:21:38;;;;;;;6.13;2.63;;;25.60;80.30;;;;;;5051492;28;20053;-25
2022/08/15 01:24:37;;;;;;;4.50;2.17;;;25.60;80.50;;;;;;5051547;28;20021;-25
2022/08/15 01:27:03;;;;;;;7.20;2.42;;;25.50;80.50;;;;;;5051489;28;20432;-25
2022/08/15 01:29:29;;;;;;;6.80;2.20;;;25.50;80.70;;;;;;5051318;28;20036;-25
2022/08/15 01:31:55;;;;;;;5.80;2.40;;;25.50;80.80;;;;;;5051625;28;20033;-25
2022/08/15 01:34:21;;;;;;;6.50;2.45;;;25.50;81.20;;;;;;5051275;28;20029;-25
2022/08/15 01:36:48;;;;;;;4.55;2.13;;;25.40;81.30;;;;;;5051294;28;20474;-25
2022/08/15 01:39:28;;;;;;;4.50;2.10;;;25.40;81.10;;;;;;5051107;28;20067;-25
2022/08/15 01:42:10;;;;;;;6.90;2.10;;;25.40;81.40;;;;;;5051312;28;20044;-25
2022/08/15 01:44:40;;;;;;;5.35;2.20;;;25.40;81.70;;;;;;5051391;28;20028;-25
2022/08/15 01:47:27;;;;;;;4.30;2.22;;;25.40;81.90;;;;;;5051241;28;20029;-25
2022/08/15 01:49:58;;;;;;;4.55;1.95;;;25.40;81.90;;;;;;5051245;28;20061;-26
2022/08/15 01:52:31;;;;;;;6.13;2.45;;;25.40;81.90;;;;;;5051251;28;20025;-25
2022/08/15 01:55:00;;;;;;;5.43;1.98;;;25.40;81.70;;;;;;5051407;28;20033;-25
2022/08/15 01:57:26;;;;;;;9.13;2.42;;;25.40;82.20;;;;;;5051202;28;20029;-25
2022/08/15 01:59:58;;;;;;;5.90;2.28;;;25.40;82.00;;;;;;5050772;28;20036;-26
2022/08/15 02:02:26;;;;;;;4.07;2.22;;;25.40;82.10;;;;;;5051207;28;20441;-26
2022/08/15 02:04:52;;;;;;;4.03;2.00;;;25.40;82.20;;;;;;5051109;28;20108;-25
2022/08/15 02:07:20;;;;;;;8.48;2.40;;;25.40;82.30;;;;;;5051405;28;20378;-25
2022/08/15 02:09:47;;;;;;;5.60;2.25;;;25.40;82.00;;;;;;5050935;28;20325;-25
2022/08/15 02:12:17;;;;;;;5.80;2.55;;;25.50;82.10;;;;;;5051341;28;20036;-25
2022/08/15 02:14:44;;;;;;;5.05;2.03;;;25.50;82.10;;;;;;5054496;28;20033;-25
2022/08/15 02:17:10;;;;;;;5.15;2.25;;;25.50;82.00;;;;;;5054622;28;20028;-26
2022/08/15 02:19:37;;;;;;;5.05;1.77;;;25.50;82.80;;;;;;5054507;28;20033;-26
2022/08/15 02:22:06;;;;;;;7.32;1.83;;;25.50;81.90;;;;;;5054532;28;20025;-25
2022/08/15 02:24:32;;;;;;;5.40;1.80;;;25.50;82.00;;;;;;5054528;28;20043;-26
2022/08/15 02:26:57;;;;;;;4.03;2.13;;;25.50;81.90;;;;;;5054508;28;20098;-25
2022/08/15 02:29:28;;;;;;;4.32;1.90;;;25.50;82.10;;;;;;5054292;28;20068;-26
2022/08/15 02:32:00;;;;;;;11.20;2.40;;;25.50;82.10;;;;;;5054496;28;20029;-25
2022/08/15 02:34:25;;;;;;;4.15;1.70;;;25.50;82.40;;;;;;5054253;28;20370;-25
2022/08/15 02:36:52;;;;;;;4.45;1.90;;;25.50;82.50;;;;;;5054415;28;20531;-25
2022/08/15 02:39:18;;;;;;;3.65;1.83;;;25.40;82.90;;;;;;5054060;28;20061;-26
2022/08/15 02:41:51;;;;;;;6.90;1.98;;;25.40;84.60;;;;;;5054281;28;20545;-26
2022/08/15 02:44:20;;;;;;;3.50;1.90;;;25.40;85.00;;;;;;5054234;28;20071;-25
2022/08/15 02:46:46;;;;;;;3.95;1.92;;;25.40;85.70;;;;;;5054235;28;20025;-25
2022/08/15 02:49:12;;;;;;;4.93;1.92;;;25.40;86.00;;;;;;5054079;28;20074;-25
2022/08/15 02:51:41;;;;;;;5.20;2.17;;;25.30;86.10;;;;;;5054060;28;20103;-25
2022/08/15 02:54:09;;;;;;;5.57;2.00;;;25.30;86.50;;;;;;5053928;28;20466;-26
2022/08/15 02:56:35;;;;;;;4.72;2.17;;;25.30;87.00;;;;;;5054017;28;20025;-25
2022/08/15 02:59:03;;;;;;;5.10;1.88;;;25.30;87.70;;;;;;5053734;28;20119;-25
2022/08/15 03:01:29;;;;;;;5.60;2.10;;;25.30;88.40;;;;;;5053820;28;20461;-26
2022/08/15 03:03:57;;;;;;;6.10;1.83;;;25.20;88.60;;;;;;5053874;28;20071;-26
2022/08/15 03:06:30;;;;;;;4.43;2.17;;;25.10;89.30;;;;;;5053887;28;20025;-25
2022/08/15 03:09:00;;;;;;;4.47;1.85;;;25.10;89.60;;;;;;5053772;28;20021;-26
2022/08/15 03:11:26;;;;;;;5.47;2.20;;;25.10;89.90;;;;;;5053737;28;20029;-25
2022/08/15 03:13:53;;;;;;;5.03;2.40;;;25.10;90.10;;;;;;5053573;28;20025;-26
2022/08/15 03:16:19;;;;;;;6.45;2.10;;;25.10;90.30;;;;;;5053683;28;20079;-25
2022/08/15 03:18:46;;;;;;;7.47;2.00;;;25.10;90.30;;;;;;5053411;28;20029;-25
2022/08/15 03:21:17;;;;;;;3.78;1.92;;;25.10;90.40;;;;;;5053452;28;20356;-26
2022/08/15 03:23:49;;;;;;;3.63;1.95;;;25.10;90.50;;;;;;5053275;28;20017;-25
2022/08/15 03:26:20;;;;;;;6.22;2.10;;;25.10;90.40;;;;;;5053381;28;20487;-25
2022/08/15 03:28:46;;;;;;;5.28;2.00;;;25.10;90.40;;;;;;5053321;28;20025;-25
2022/08/15 03:31:13;;;;;;;4.68;1.90;;;25.20;90.30;;;;;;5053316;28;20052;-25
2022/08/15 03:33:41;;;;;;;4.57;1.90;;;25.10;90.20;;;;;;5053731;28;20285;-25
2022/08/15 03:36:08;;;;;;;5.95;2.20;;;25.10;90.30;;;;;;5053283;28;20025;-25
2022/08/15 03:38:35;;;;;;;4.75;2.55;;;25.10;90.20;;;;;;5053212;28;20043;-25
2022/08/15 03:41:00;;;;;;;4.97;1.90;;;25.10;90.20;;;;;;5053145;28;20475;-26
2022/08/15 03:43:28;;;;;;;6.93;2.00;;;25.10;90.30;;;;;;5053084;28;20052;-25
2022/08/15 03:45:58;;;;;;;4.35;2.17;;;25.00;90.30;;;;;;5053490;28;20032;-25
2022/08/15 03:48:26;;;;;;;5.72;1.95;;;25.10;90.20;;;;;;5052947;28;20023;-26
2022/08/15 03:50:53;;;;;;;6.82;2.47;;;25.10;90.30;;;;;;5052900;28;20021;-25
2022/08/15 03:53:20;;;;;;;5.65;2.13;;;25.10;90.30;;;;;;5052950;28;20587;-25
2022/08/15 03:55:47;;;;;;;4.07;2.05;;;25.10;90.20;;;;;;5052917;28;20074;-25
2022/08/15 03:58:13;;;;;;;8.15;1.95;;;25.10;90.20;;;;;;5052760;28;20021;-26
2022/08/15 04:00:46;;;;;;;5.75;2.10;;;25.10;90.30;;;;;;5052289;28;20038;-25
2022/08/15 04:03:21;;;;;;;5.30;2.10;;;25.10;90.20;;;;;;5052736;28;20040;-25
2022/08/15 04:05:52;;;;;;;4.82;1.80;;;25.20;90.30;;;;;;5051475;28;20561;-25
2022/08/15 04:08:20;;;;;;;7.95;2.13;;;25.20;90.30;;;;;;5052703;28;20108;-26
2022/08/15 04:10:50;;;;;;;8.32;1.92;;;25.20;90.30;;;;;;5052537;28;20093;-25
2022/08/15 04:13:18;;;;;;;4.32;1.90;;;25.20;90.40;;;;;;5052641;28;20040;-26
2022/08/15 04:15:44;;;;;;;5.00;1.80;;;25.20;90.30;;;;;;5052537;28;20037;-25
2022/08/15 04:18:09;;;;;;;3.92;1.80;;;25.20;90.20;;;;;;5052444;28;20025;-25
2022/08/15 04:20:36;;;;;;;4.95;1.90;;;25.20;90.10;;;;;;5052237;28;20466;-26
2022/08/15 04:23:02;;;;;;;4.47;1.80;;;25.10;90.00;;;;;;5052469;28;20079;-25
2022/08/15 04:25:34;;;;;;;4.43;1.50;;;25.00;89.70;;;;;;5052357;28;20021;-26
2022/08/15 04:28:03;;;;;;;3.20;1.70;;;25.00;89.50;;;;;;5052813;28;20067;-26
2022/08/15 04:30:31;;;;;;;3.60;1.60;;;24.90;89.10;;;;;;5052141;28;20402;-25
2022/08/15 04:33:11;;;;;;;4.45;1.58;;;24.90;88.90;;;;;;5052172;28;20115;-25
2022/08/15 04:35:38;;;;;;;2.40;1.25;;;24.90;88.80;;;;;;5051745;28;20021;-25
2022/08/15 04:38:04;;;;;;;5.13;1.55;;;24.90;88.70;;;;;;5051751;28;20027;-25
2022/08/15 04:40:30;;;;;;;4.30;1.35;;;24.90;88.60;;;;;;5051799;28;20025;-25
2022/08/15 04:42:59;;;;;;;3.17;1.30;;;24.90;88.50;;;;;;5051921;28;20078;-26
2022/08/15 04:45:27;;;;;;;5.72;1.50;;;24.90;88.40;;;;;;5052081;28;20025;-26
2022/08/15 04:47:53;;;;;;;2.72;1.15;;;24.80;88.30;;;;;;5052024;28;20048;-26
2022/08/15 04:50:19;;;;;;;2.42;1.33;;;24.80;88.30;;;;;;5051784;28;20051;-25
2022/08/15 04:52:55;;;;;;;2.50;1.10;;;24.80;88.20;;;;;;5051722;28;20439;-25
2022/08/15 04:55:24;;;;;;;4.25;1.20;;;24.80;88.10;;;;;;5051918;28;20150;-25
2022/08/15 04:57:54;;;;;;;2.63;1.30;;;24.80;87.90;;;;;;5051800;28;20024;-26
2022/08/15 05:00:22;;;;;;;3.67;1.10;;;24.80;87.90;;;;;;5051460;28;20041;-25
2022/08/15 05:03:03;;;;;;;2.83;1.08;;;24.80;88.00;;;;;;5051708;28;20166;-25
2022/08/15 05:05:31;;;;;;;4.07;1.13;;;24.80;88.10;;;;;;5051698;28;20498;-25
2022/08/15 05:07:56;;;;;;;1.92;1.15;;;24.80;88.00;;;;;;5051702;28;20498;-25
2022/08/15 05:10:22;;;;;;;1.88;1.00;;;24.70;87.90;;;;;;5051707;28;20021;-26
2022/08/15 05:15:15;;;;;;;1.48;1.10;;;24.70;87.90;;;;;;5066124;22;20132;-24
2022/08/15 05:17:41;;;;;;;4.07;1.50;;;24.70;88.00;;;;;;5051487;28;20385;-24
2022/08/15 05:20:08;;;;;;;1.98;1.10;;;24.70;88.00;;;;;;5051658;28;20036;-23
2022/08/15 05:22:33;;;;;;;3.10;1.30;;;24.70;88.00;;;;;;5052581;28;20021;-23
2022/08/15 05:24:59;;;;;;;3.60;1.30;;;24.70;87.90;;;;;;5051617;28;20094;-23
2022/08/15 05:27:25;;;;;;;3.10;1.23;;;24.70;87.90;;;;;;5051676;28;20025;-24
2022/08/15 05:29:51;;;;;;;4.68;1.60;;;24.70;87.80;;;;;;5051536;28;20436;-23
2022/08/15 05:32:19;;;;;;;2.05;1.00;;;24.70;87.70;;;;;;5051554;28;20025;-23
2022/08/15 05:34:47;;;;;;;2.45;1.35;;;24.70;87.70;;;;;;5051559;28;20029;-24
2022/08/15 05:37:13;;;;;;;2.03;1.33;;;24.70;87.90;;;;;;5051559;28;20057;-23
2022/08/15 05:39:40;;;;;;;5.10;1.40;;;24.70;88.00;;;;;;5051363;28;20059;-23
2022/08/15 05:42:35;;;;;;;4.38;1.40;;;24.70;88.00;;;;;;5051388;28;20024;-23
2022/08/15 05:45:05;;;;;;;;;;;24.70;87.80;;;;;;5051883;28;20025;-24
2022/08/15 05:47:37;;;;;;;3.05;1.17;;;24.70;87.70;;;;;;5052580;28;20095;-23
2022/08/15 05:50:21;;;;;;;2.33;1.20;;;24.70;87.70;;;;;;5055252;28;20025;-23
2022/08/15 05:52:52;;;;;;;;;;;24.70;87.60;;;;;;5055762;28;20367;-24
2022/08/15 05:55:39;;;;;;;2.92;1.40;;;24.70;87.60;;;;;;5054068;28;19905;-23
2022/08/15 05:58:17;;;;;;;2.38;1.30;;;24.70;87.50;;;;;;5051439;28;20121;-24
2022/08/15 06:00:53;;;;;;;3.42;1.33;;;24.70;87.70;;;;;;5055768;28;20021;-24
2022/08/15 06:03:26;;;;;;;3.63;1.40;;;24.70;87.70;;;;;;5055579;28;20378;-23
2022/08/15 06:05:56;;;;;;;3.17;1.65;;;24.70;87.70;;;;;;5055605;28;20017;-24
2022/08/15 06:08:26;;;;;;;2.13;1.33;;;24.60;87.80;;;;;;5054947;28;20021;-24
2022/08/15 06:10:54;;;;;;;4.18;1.40;;;24.70;88.00;;;;;;5054930;28;20028;-23
2022/08/15 06:13:29;;;;;;;1.83;1.10;;;24.70;88.20;;;;;;5054860;28;20029;-24
2022/08/15 06:16:04;;;;;;;2.00;1.00;;;24.60;88.10;;;;;;5053774;28;20029;-23
2022/08/15 06:18:34;;;;;;;3.88;1.70;;;24.60;88.20;;;;;;5055175;28;20127;-23
2022/08/15 06:21:27;;;;;;;2.35;1.27;;;24.60;88.20;;;;;;5053661;28;20162;-23
2022/08/15 06:24:09;;;;;;;4.63;1.55;;;24.60;89.00;;;;;;5054683;28;20079;-23
2022/08/15 06:26:57;;;;;;;3.28;1.20;;;24.60;88.30;;;;;;5055020;28;20020;-23
2022/08/15 06:29:44;;;;;;;3.78;1.23;;;24.70;88.30;;;;;;5054690;28;20482;-24
2022/08/15 06:32:16;;;;;;;4.80;1.40;;;24.70;88.40;;;;;;5055017;28;20044;-23
2022/08/15 06:35:16;;;;;;;1.88;1.20;;;24.70;88.40;;;;;;5061663;28;20028;-23
2022/08/15 06:37:45;;;;;;;1.65;1.13;;;24.70;88.40;;;;;;5055369;28;20107;-24
2022/08/15 06:40:20;;;;;;;2.78;1.13;;;24.70;88.40;;;;;;5054682;28;20029;-23
2022/08/15 06:42:46;;;;;;;3.40;1.10;;;24.60;88.30;;;;;;5055127;28;20036;-24
2022/08/15 06:45:21;;;;;;;2.55;1.30;;;24.60;88.20;;;;;;5054915;28;20028;-24
2022/08/15 06:47:50;;;;;;;2.70;1.40;;;24.60;88.10;;;;;;5054467;28;20017;-24
2022/08/15 06:50:19;;;;;;;6.00;1.27;;;24.50;87.60;;;;;;5054305;28;20029;-24
2022/08/15 06:52:56;;;;;;;2.20;1.48;;;24.40;87.60;;;;;;5054396;28;20052;-24
2022/08/15 06:55:26;;;;;;;4.32;1.20;;;24.50;87.60;;;;;;5054422;28;20021;-24
2022/08/15 06:58:08;;;;;;;2.10;1.20;;;24.60;87.20;;;;;;5054371;28;20363;-24
2022/08/15 07:01:00;;;;;;;3.10;1.48;;;24.80;86.80;;;;;;5053170;28;20482;-24
2022/08/15 07:03:47;;;;;;;6.43;1.50;;;24.90;86.50;;;;;;5052847;28;20434;-24
2022/08/15 07:06:16;;;;;;;3.28;1.38;;;25.00;86.30;;;;;;5052664;28;20071;-24
2022/08/15 07:09:09;;;;;;;3.90;1.20;;;25.10;86.10;;;;;;5053911;28;20477;-24
2022/08/15 07:12:14;;;;;;;5.90;1.35;;;25.10;85.80;;;;;;5054004;28;20017;-24
2022/08/15 07:15:06;;;;;;;;;;;25.20;85.70;;;;;;5054165;28;20029;-24
2022/08/15 07:17:47;;;;;;;1.52;1.10;;;25.20;85.60;;;;;;5052719;28;20404;-24
2022/08/15 07:20:13;;;;;;;2.83;1.20;;;25.30;85.50;;;;;;5053501;28;20021;-24
2022/08/15 07:22:40;;;;;;;2.08;1.15;;;25.30;85.40;;;;;;5053797;28;20088;-24
2022/08/15 07:25:15;;;;;;;2.55;1.10;;;25.30;85.30;;;;;;5052541;28;20116;-24
2022/08/15 07:27:52;;;;;;;4.43;1.60;;;25.40;85.20;;;;;;5053761;28;20365;-24
2022/08/15 07:30:29;;;;;;;2.83;1.40;;;25.40;85.00;;;;;;5052025;28;20113;-24
2022/08/15 07:32:57;;;;;;;2.22;1.27;;;25.40;84.90;;;;;;5053544;28;20490;-23
2022/08/15 07:35:35;;;;;;;2.83;1.25;;;25.50;84.80;;;;;;5053504;28;20075;-24
2022/08/15 07:38:07;;;;;;;3.25;1.10;;;25.50;84.70;;;;;;5053410;28;20025;-24
2022/08/15 07:40:38;;;;;;;2.70;1.30;;;25.50;84.50;;;;;;5053167;28;20029;-24
2022/08/15 07:43:25;;;;;;;4.10;1.20;;;25.50;84.40;;;;;;5053160;28;20024;-24
2022/08/15 07:46:34;;;;;;;3.90;1.30;;;25.60;84.30;;;;;;5053407;28;20021;-24
2022/08/15 07:49:17;;;;;;;2.03;1.20;;;25.60;84.20;;;;;;5053238;28;20663;-23
2022/08/15 07:51:58;;;;;;;6.20;1.38;;;25.60;84.00;;;;;;5053289;28;20428;-24
2022/08/15 07:54:45;;;;;;;3.17;1.00;;;25.60;83.90;;;;;;5053369;28;20029;-24
2022/08/15 07:57:23;;;;;;;2.85;0.98;;;25.70;83.80;;;;;;5053411;28;20426;-23
2022/08/15 08:00:28;;;;;;;3.42;1.08;;;25.70;83.60;;;;;;5053128;28;20033;-23
2022/08/15 08:03:21;;;;;;;3.15;1.30;;;25.70;83.50;;;;;;5041783;28;20037;-23
2022/08/15 08:06:02;;;;;;;2.97;1.02;;;25.80;83.50;;;;;;5052873;28;20024;-23
2022/08/15 08:08:46;;;;;;;4.00;1.10;;;25.80;83.40;;;;;;5052572;28;20470;-23
2022/08/15 08:11:28;;;;;;;2.45;1.17;;;25.70;83.30;;;;;;5052928;28;20398;-23
2022/08/15 08:14:14;;;;;;;2.28;1.10;;;25.70;83.30;;;;;;5052513;28;20426;-23
2022/08/15 08:17:13;;;;;;;2.33;1.10;;;25.70;83.20;;;;;;5052304;28;20356;-23
2022/08/15 08:20:16;;;;;;;2.83;1.08;;;25.80;83.20;;;;;;5048117;28;20207;-24
2022/08/15 08:22:53;;;;;;;2.17;1.25;;;25.70;83.00;;;;;;5052428;28;20023;-24
2022/08/15 08:25:44;;;;;;;1.50;0.93;;;25.80;83.00;;;;;;5052621;28;20064;-24
2022/08/15 08:28:36;;;;;;;1.73;1.00;;;25.80;82.80;;;;;;5052548;28;20474;-24
2022/08/15 08:31:13;;;;;;;2.65;1.13;;;25.80;82.80;;;;;;5050752;28;20036;-24
2022/08/15 08:33:58;;;;;;;2.15;1.35;;;25.90;82.90;;;;;;5052863;28;20064;-24
2022/08/15 08:36:32;;;;;;;;;;;25.90;82.70;;;;;;5053384;28;20025;-24
2022/08/15 08:39:17;;;;;;;2.97;0.90;;;25.90;82.50;;;;;;5051012;28;19908;-24
2022/08/15 08:42:14;;;;;;;2.20;1.10;;;25.90;82.50;;;;;;5052627;28;20501;-24
2022/08/15 08:44:43;;;;;;;1.48;0.95;;;25.90;82.40;;;;;;5041014;28;20048;-24
2022/08/15 08:47:44;;;;;;;1.33;0.90;;;26.00;82.40;;;;;;5051956;28;20029;-24
2022/08/15 08:50:21;;;;;;;1.88;0.80;;;26.00;82.20;;;;;;5044688;28;20510;-24
2022/08/15 08:53:22;;;;;;;4.13;0.85;;;26.00;79.90;;;;;;5052137;28;20024;-24
2022/08/15 08:55:52;;;;;;;1.70;1.00;;;25.90;78.10;;;;;;5043229;28;20035;-24
2022/08/15 08:58:36;;;;;;;2.28;0.90;;;25.80;78.00;;;;;;5051954;28;20112;-24
2022/08/15 09:01:06;;;;;;;2.03;1.00;;;25.80;77.90;;;;;;5051812;28;20025;-24
2022/08/15 09:03:37;;;;;;;2.83;1.08;;;25.90;78.10;;;;;;5050605;28;20029;-24
2022/08/15 09:06:03;;;;;;;3.15;1.17;;;26.00;78.30;;;;;;5051811;28;20020;-24
2022/08/15 09:08:51;;;;;;;2.05;0.95;;;26.10;78.30;;;;;;5051598;28;20048;-24
2022/08/15 09:11:33;;;;;;;4.47;1.02;;;26.10;78.40;;;;;;5051658;28;20029;-24
2022/08/15 09:14:11;;;;;;;2.63;1.02;;;26.10;78.50;;;;;;5051580;28;20086;-24
2022/08/15 09:16:39;;;;;;;3.42;1.00;;;26.20;78.60;;;;;;5051646;28;20018;-24
2022/08/15 09:19:34;;;;;;;1.10;0.80;;;26.20;78.70;;;;;;5051345;28;20033;-24
2022/08/15 09:22:01;;;;;;;2.30;0.98;;;26.20;78.60;;;;;;5046795;28;20443;-24
2022/08/15 09:24:27;;;;;;;1.45;0.93;;;26.30;78.70;;;;;;5051700;28;20025;-24
2022/08/15 09:27:01;;;;;;;0.90;0.70;;;26.30;78.70;;;;;;5051807;28;20392;-23
2022/08/15 09:29:31;;;;;;;2.83;0.90;;;26.30;78.50;;;;;;5051424;28;20052;-23
2022/08/15 09:32:18;;;;;;;1.95;0.90;;;26.40;78.60;;;;;;5051112;28;20029;-23
2022/08/15 09:35:24;;;;;;;1.70;0.93;;;26.40;78.50;;;;;;5051157;28;20212;-23
2022/08/15 09:38:28;;;;;;;1.13;0.70;;;26.50;78.50;;;;;;5051339;28;20025;-23
2022/08/15 09:41:00;;;;;;;0.90;0.80;;;26.50;78.30;;;;;;5051039;28;20032;-24
2022/08/15 09:44:00;;;;;;;1.95;0.90;;;26.60;78.40;;;;;;5051161;28;20490;-24
2022/08/15 09:46:49;;;;;;;1.85;0.95;;;26.50;78.30;;;;;;5042649;28;20029;-24
2022/08/15 09:49:40;;;;;;;1.80;0.80;;;26.60;78.30;;;;;;5051482;28;20033;-24
2022/08/15 09:52:37;;;;;;;1.55;0.90;;;26.60;78.30;;;;;;5051329;28;20563;-24
2022/08/15 09:55:14;;;;;;;2.28;0.80;;;26.60;78.20;;;;;;5051089;28;20187;-24
2022/08/15 09:57:47;;;;;;;1.55;0.90;;;26.70;78.40;;;;;;5051438;28;20017;-24
2022/08/15 10:00:15;;;;;;;1.58;0.70;;;26.70;78.30;;;;;;5051654;28;20549;-24
2022/08/15 10:02:42;;;;;;;0.98;0.80;;;26.60;78.10;;;;;;5049853;28;20033;-24
2022/08/15 10:05:47;;;;;;;1.30;0.80;;;26.70;78.20;;;;;;5051119;28;20378;-24
2022/08/15 10:08:14;;;;;;;;;;;26.70;78.10;;;;;;5051087;28;20025;-24
2022/08/15 10:11:10;;;;;;;2.08;0.80;;;26.70;78.00;;;;;;5050594;28;19908;-24
2022/08/15 10:13:39;;;;;;;0.80;0.70;;;26.80;78.10;;;;;;5051061;28;20099;-24
2022/08/15 10:16:40;;;;;;;1.00;0.70;;;26.70;78.00;;;;;;5050058;28;20035;-24
2022/08/15 10:19:25;;;;;;;1.20;0.70;;;26.80;78.00;;;;;;5050863;28;20390;-24
2022/08/15 10:21:54;;;;;;;0.63;0.63;;;26.80;78.00;;;;;;5050964;28;20023;-24
2022/08/15 10:24:33;;;;;;;1.15;0.80;;;26.80;78.00;;;;;;5050914;28;20017;-24
2022/08/15 10:27:09;;;;;;;1.95;0.85;;;26.80;78.00;;;;;;5051075;28;20520;-24
2022/08/15 10:29:41;;;;;;;0.75;0.68;;;26.80;78.00;;;;;;5050808;28;20036;-24
2022/08/15 10:32:35;;;;;;;1.10;0.73;;;26.80;78.00;;;;;;5051113;28;20542;-24
2022/08/15 10:35:28;;;;;;;0.75;0.68;;;26.80;78.00;;;;;;5053022;28;20105;-24
2022/08/15 10:38:02;;;;;;;1.38;0.90;;;26.80;78.00;;;;;;5056396;28;20025;-24
2022/08/15 10:41:07;;;;;;;0.90;0.80;;;26.80;78.10;;;;;;5054952;28;20402;-24
2022/08/15 10:43:33;;;;;;;;;;;26.70;78.00;;;;;;5055109;28;20502;-24
2022/08/15 10:46:17;;;;;;;1.20;0.90;;;26.70;78.10;;;;;;5054603;28;19912;-24
2022/08/15 10:48:57;;;;;;;1.27;0.80;;;26.80;78.10;;;;;;5054398;28;20032;-24
2022/08/15 10:51:44;;;;;;;1.23;0.80;;;26.80;78.00;;;;;;5054388;28;20063;-24
2022/08/15 10:54:31;;;;;;;0.95;0.70;;;26.80;77.90;;;;;;5054314;28;20028;-24
2022/08/15 10:56:57;;;;;;;1.90;0.70;;;26.80;77.80;;;;;;5052806;28;20021;-24
2022/08/15 10:59:52;;;;;;;0.93;0.80;;;26.80;77.80;;;;;;5053716;28;20066;-24
2022/08/15 11:02:20;;;;;;;;;;;26.90;77.80;;;;;;5054661;28;20053;-24
2022/08/15 11:04:46;;;;;;;0.90;0.70;;;26.80;77.70;;;;;;5054020;28;19911;-24
2022/08/15 11:07:21;;;;;;;1.90;0.70;;;26.90;77.70;;;;;;5054189;28;20096;-24
2022/08/15 11:09:59;;;;;;;2.15;0.80;;;26.90;77.80;;;;;;5053704;28;20025;-24
2022/08/15 11:12:30;;;;;;;1.52;0.80;;;26.90;77.80;;;;;;5054074;28;20021;-24
2022/08/15 11:14:59;;;;;;;2.78;0.90;;;26.80;77.70;;;;;;5054228;28;20120;-24
2022/08/15 11:17:30;;;;;;;1.67;0.82;;;26.80;78.60;;;;;;5053859;28;20429;-24
2022/08/15 11:20:15;;;;;;;1.52;0.93;;;26.80;77.90;;;;;;5053678;28;20067;-24
2022/08/15 11:22:57;;;;;;;1.20;0.82;;;26.70;77.80;;;;;;5053946;28;20045;-24
2022/08/15 11:25:27;;;;;;;1.33;0.85;;;26.70;77.90;;;;;;5053120;28;20028;-24
2022/08/15 11:28:03;;;;;;;1.67;0.70;;;26.70;77.90;;;;;;5054785;28;20025;-24
2022/08/15 11:30:33;;;;;;;0.82;0.70;;;26.60;77.90;;;;;;5053508;28;20039;-24
2022/08/15 11:33:47;;;;;;;1.00;0.77;;;26.60;78.00;;;;;;5053423;28;20029;-24
2022/08/15 11:36:17;;;;;;;0.77;0.70;;;26.60;78.10;;;;;;5031258;28;20026;-23
2022/08/15 11:38:51;;;;;;;2.88;0.80;;;26.60;78.10;;;;;;5030869;28;20029;-24
2022/08/15 11:41:30;;;;;;;1.42;0.90;;;26.60;78.10;;;;;;5044903;28;20037;-24
2022/08/15 11:43:59;;;;;;;1.25;0.80;;;26.60;78.00;;;;;;5053578;28;20166;-24
2022/08/15 11:46:27;;;;;;;1.00;0.70;;;26.60;78.00;;;;;;5053088;28;20043;-24
2022/08/15 11:49:06;;;;;;;1.48;0.80;;;26.60;78.00;;;;;;5051677;28;20023;-24
2022/08/15 11:51:45;;;;;;;1.45;0.95;;;26.60;77.90;;;;;;5053187;28;20028;-24
2022/08/15 11:54:13;;;;;;;3.08;1.40;;;26.70;77.90;;;;;;5053117;28;20693;-24
2022/08/15 11:56:58;;;;;;;2.85;1.52;;;26.70;72.50;;;;;;5053422;28;20094;-24
2022/08/15 11:59:37;;;;;;;4.55;1.50;;;26.60;71.70;;;;;;5052929;28;20540;-24
2022/08/15 12:02:18;;;;;;;3.10;1.90;;;26.60;72.40;;;;;;5052926;28;20036;-24
2022/08/15 12:04:45;;;;;;;2.35;1.50;;;26.60;72.70;;;;;;5052737;28;20021;-24
2022/08/15 12:07:27;;;;;;;6.95;1.90;;;26.70;73.90;;;;;;5052773;28;20038;-24
2022/08/15 12:10:00;;;;;;;4.32;1.80;;;26.70;73.30;;;;;;5052538;28;20025;-24
2022/08/15 12:12:42;;;;;;;3.03;1.67;;;26.80;73.50;;;;;;5052738;28;20147;-24
2022/08/15 12:15:13;;;;;;;3.25;1.60;;;26.80;73.70;;;;;;5052645;28;20411;-24
2022/08/15 12:17:45;;;;;;;5.28;1.80;;;26.80;73.80;;;;;;5053032;28;20127;-24
2022/08/15 12:20:11;;;;;;;3.38;1.70;;;26.80;73.90;;;;;;5052554;28;20471;-24
2022/08/15 12:22:41;;;;;;;4.07;2.13;;;26.80;74.00;;;;;;5053458;28;20055;-23
2022/08/15 12:25:09;;;;;;;2.95;1.55;;;26.80;74.10;;;;;;5054463;28;20100;-24
2022/08/15 12:27:35;;;;;;;4.93;1.70;;;26.80;74.20;;;;;;5052880;28;20025;-24
2022/08/15 12:30:07;;;;;;;2.58;1.50;;;26.80;74.40;;;;;;5053016;28;20040;-24
2022/08/15 12:32:32;;;;;;;3.67;1.52;;;26.80;74.50;;;;;;5052771;28;20073;-23
2022/08/15 12:34:59;;;;;;;2.42;1.50;;;26.80;74.50;;;;;;5052513;28;20501;-24
2022/08/15 12:37:26;;;;;;;7.43;1.70;;;26.80;74.70;;;;;;5052984;28;20075;-23
2022/08/15 12:39:58;;;;;;;2.33;1.42;;;26.80;74.80;;;;;;5052377;28;20021;-24
2022/08/15 12:42:31;;;;;;;2.53;1.55;;;26.80;74.90;;;;;;5052457;28;20041;-24
2022/08/15 12:45:01;;;;;;;6.20;1.75;;;26.80;74.90;;;;;;5052570;28;20017;-24
2022/08/15 12:47:30;;;;;;;2.40;1.35;;;26.80;74.90;;;;;;5052067;28;20025;-24
2022/08/15 12:49:56;;;;;;;2.00;1.35;;;26.80;75.00;;;;;;5052323;28;20040;-24
2022/08/15 12:52:22;;;;;;;1.63;1.30;;;26.80;75.00;;;;;;5052246;28;20367;-24
2022/08/15 12:54:51;;;;;;;2.05;1.35;;;26.80;75.00;;;;;;5051994;28;20457;-24
2022/08/15 12:57:17;;;;;;;2.40;1.45;;;26.80;75.10;;;;;;5051292;28;20367;-24
2022/08/15 12:59:43;;;;;;;2.72;1.40;;;26.80;75.20;;;;;;5051802;28;20436;-24
2022/08/15 13:02:11;;;;;;;1.40;1.30;;;26.80;75.20;;;;;;5052095;28;20230;-24
2022/08/15 13:04:38;;;;;;;2.30;1.17;;;26.70;75.30;;;;;;5051993;28;20028;-24
2022/08/15 13:07:04;;;;;;;3.08;1.55;;;26.70;75.50;;;;;;5050458;28;20596;-24
2022/08/15 13:09:32;;;;;;;2.72;1.45;;;26.70;75.40;;;;;;5051650;28;20048;-24
2022/08/15 13:12:01;;;;;;;1.85;1.30;;;26.60;75.40;;;;;;5052253;28;20379;-23
2022/08/15 13:14:28;;;;;;;1.92;1.50;;;26.60;75.50;;;;;;5051744;28;20472;-23
2022/08/15 13:16:54;;;;;;;2.30;1.60;;;26.60;75.70;;;;;;5052270;28;20021;-23
2022/08/15 13:19:24;;;;;;;2.47;1.42;;;26.60;75.70;;;;;;5052749;28;20471;-23
2022/08/15 13:24:37;;;;;;;3.17;1.60;;;26.60;75.70;;;;;;5052178;28;20032;-24
2022/08/15 13:27:04;;;;;;;2.75;1.20;;;26.60;75.80;;;;;;5052422;28;20482;-24
2022/08/15 13:29:30;;;;;;;2.53;1.55;;;26.60;75.80;;;;;;5052329;28;20028;-24
2022/08/15 13:31:57;;;;;;;2.67;1.40;;;26.60;75.90;;;;;;5051795;28;20056;-24